createdAt,value
2022-09-23T00:01:20.592Z,16.84
2022-09-23T00:03:49.146Z,16.67
2022-09-23T00:06:19.771Z,16.56
2022-09-23T00:08:49.751Z,16.31
2022-09-23T00:11:21.156Z,16.42
2022-09-23T00:13:51.239Z,16.70
2022-09-23T00:16:22.713Z,16.86
2022-09-23T00:18:50.662Z,16.91
2022-09-23T00:21:18.872Z,16.89
2022-09-23T00:23:46.168Z,16.72
2022-09-23T00:26:16.903Z,16.48
2022-09-23T00:28:44.160Z,16.26
2022-09-23T00:31:14.845Z,16.36
2022-09-23T00:33:42.569Z,16.70
2022-09-23T00:36:15.154Z,16.84
2022-09-23T00:38:43.297Z,16.93
2022-09-23T00:41:10.450Z,16.73
2022-09-23T00:43:45.997Z,16.49
2022-09-23T00:46:18.202Z,16.34
2022-09-23T00:48:46.140Z,16.20
2022-09-23T00:51:18.608Z,16.33
2022-09-23T00:53:48.732Z,16.66
2022-09-23T00:56:16.720Z,16.87
2022-09-23T00:58:46.614Z,16.78
2022-09-23T01:01:14.650Z,16.55
2022-09-23T01:03:46.740Z,16.41
2022-09-23T01:06:14.830Z,16.25
2022-09-23T01:08:45.953Z,16.02
2022-09-23T01:11:47.746Z,16.21
2022-09-23T01:14:32.385Z,16.69
2022-09-23T01:17:07.577Z,16.77
2022-09-23T01:20:02.493Z,16.63
2022-09-23T01:22:47.290Z,16.53
2022-09-23T01:25:32.536Z,16.37
2022-09-23T01:28:33.714Z,16.14
2022-09-23T01:31:07.044Z,16.39
2022-09-23T01:33:56.990Z,16.74
2022-09-23T01:36:40.260Z,16.80
2022-09-23T01:39:17.093Z,16.74
2022-09-23T01:42:05.648Z,16.62
2022-09-23T01:44:43.253Z,16.41
2022-09-23T01:47:14.485Z,16.26
2022-09-23T01:50:30.278Z,16.04
2022-09-23T01:53:04.901Z,16.34
2022-09-23T01:55:36.763Z,16.82
2022-09-23T01:58:25.416Z,16.89
2022-09-23T02:01:06.387Z,16.71
2022-09-23T02:03:45.828Z,16.52
2022-09-23T02:06:19.978Z,16.30
2022-09-23T02:09:16.069Z,16.14
2022-09-23T02:11:49.059Z,15.84
2022-09-23T02:14:23.266Z,16.12
2022-09-23T02:16:56.245Z,16.54
2022-09-23T02:19:43.889Z,16.63
2022-09-23T02:22:29.881Z,16.54
2022-09-23T02:24:57.955Z,16.39
2022-09-23T02:28:15.263Z,16.21
2022-09-23T02:31:05.161Z,15.98
2022-09-23T02:33:55.350Z,15.72
2022-09-23T02:36:35.098Z,16.09
2022-09-23T02:39:08.966Z,16.52
2022-09-23T02:41:52.130Z,16.66
2022-09-23T02:44:20.610Z,16.58
2022-09-23T02:46:52.471Z,16.39
2022-09-23T02:49:29.759Z,16.17
2022-09-23T02:52:00.598Z,16.00
2022-09-23T02:54:29.478Z,15.84
2022-09-23T02:56:57.648Z,15.49
2022-09-23T02:59:24.915Z,15.68
2022-09-23T03:02:20.756Z,16.04
2022-09-23T03:05:14.051Z,16.24
2022-09-23T03:07:59.374Z,16.27
2022-09-23T03:10:36.066Z,16.03
2022-09-23T03:13:18.664Z,15.83
2022-09-23T03:15:57.386Z,15.57
2022-09-23T03:18:35.282Z,15.73
2022-09-23T03:21:08.070Z,16.01
2022-09-23T03:23:38.182Z,16.16
2022-09-23T03:26:10.759Z,16.10
2022-09-23T03:28:39.742Z,16.01
2022-09-23T03:31:06.992Z,15.87
2022-09-23T03:33:34.763Z,15.76
2022-09-23T03:36:25.252Z,15.56
2022-09-23T03:38:59.472Z,15.84
2022-09-23T03:41:32.909Z,16.26
2022-09-23T03:44:00.316Z,16.52
2022-09-23T03:46:30.290Z,16.50
2022-09-23T03:49:06.589Z,16.43
2022-09-23T03:51:33.576Z,16.31
2022-09-23T03:54:00.986Z,16.08
2022-09-23T03:56:28.169Z,15.90
2022-09-23T03:58:55.318Z,16.13
2022-09-23T04:01:22.457Z,16.52
2022-09-23T04:03:49.619Z,16.76
2022-09-23T04:06:17.074Z,16.74
2022-09-23T04:08:44.092Z,16.61
2022-09-23T04:11:11.476Z,16.46
2022-09-23T04:13:38.531Z,16.29
2022-09-23T04:16:05.748Z,16.11
2022-09-23T04:18:32.827Z,16.12
2022-09-23T04:21:00.179Z,16.54
2022-09-23T04:23:27.843Z,16.66
2022-09-23T04:25:55.608Z,16.66
2022-09-23T04:28:23.267Z,16.60
2022-09-23T04:30:50.624Z,16.57
2022-09-23T04:33:18.186Z,16.46
2022-09-23T04:35:49.740Z,16.22
2022-09-23T04:38:16.782Z,16.41
2022-09-23T04:40:44.222Z,16.76
2022-09-23T04:43:13.534Z,16.93
2022-09-23T04:45:40.801Z,17.01
2022-09-23T04:48:09.785Z,16.95
2022-09-23T04:50:37.859Z,16.82
2022-09-23T04:53:05.250Z,16.73
2022-09-23T04:55:32.492Z,16.65
2022-09-23T04:57:59.612Z,16.50
2022-09-23T05:00:27.276Z,16.70
2022-09-23T05:02:54.322Z,17.11
2022-09-23T05:05:23.832Z,17.35
2022-09-23T05:07:51.797Z,17.34
2022-09-23T05:10:18.946Z,17.31
2022-09-23T05:12:45.945Z,17.22
2022-09-23T05:15:16.270Z,17.08
2022-09-23T05:17:43.485Z,16.91
2022-09-23T05:20:11.640Z,16.71
2022-09-23T05:22:38.614Z,16.83
2022-09-23T05:25:05.999Z,17.14
2022-09-23T05:27:33.091Z,17.35
2022-09-23T05:30:01.266Z,17.39
2022-09-23T05:32:28.313Z,17.29
2022-09-23T05:34:55.945Z,17.23
2022-09-23T05:37:23.542Z,17.17
2022-09-23T05:39:50.583Z,17.09
2022-09-23T05:42:21.321Z,16.94
2022-09-23T05:44:48.468Z,17.14
2022-09-23T05:47:15.614Z,17.52
2022-09-23T05:49:59.063Z,17.69
2022-09-23T05:52:27.018Z,17.66
2022-09-23T05:54:54.272Z,17.55
2022-09-23T05:57:21.591Z,17.48
2022-09-23T05:59:48.692Z,17.40
2022-09-23T06:02:15.862Z,17.26
2022-09-23T06:04:44.000Z,17.04
2022-09-23T06:07:11.348Z,17.17
2022-09-23T06:09:38.705Z,17.57
2022-09-23T06:12:06.507Z,17.78
2022-09-23T06:14:33.721Z,17.76
2022-09-23T06:17:00.869Z,17.68
2022-09-23T06:19:27.823Z,17.54
2022-09-23T06:21:54.872Z,17.41
2022-09-23T06:24:25.890Z,17.33
2022-09-23T06:26:56.029Z,17.12
2022-09-23T06:29:23.046Z,17.31
2022-09-23T06:31:50.547Z,17.64
2022-09-23T06:34:17.791Z,17.89
2022-09-23T06:36:46.382Z,17.93
2022-09-23T06:39:15.334Z,17.86
2022-09-23T06:41:43.713Z,17.69
2022-09-23T06:44:14.890Z,17.48
2022-09-23T06:46:42.983Z,17.39
2022-09-23T06:49:10.816Z,17.25
2022-09-23T06:51:37.946Z,17.45
2022-09-23T06:54:05.013Z,17.84
2022-09-23T06:56:37.782Z,18.00
2022-09-23T06:59:07.506Z,18.09
2022-09-23T07:01:34.992Z,18.09
2022-09-23T07:04:02.317Z,18.05
2022-09-23T07:06:29.548Z,17.98
2022-09-23T07:08:56.619Z,17.91
2022-09-23T07:11:23.664Z,17.79
2022-09-23T07:13:51.018Z,17.96
2022-09-23T07:16:18.427Z,18.40
2022-09-23T07:18:45.935Z,18.63
2022-09-23T07:21:16.129Z,18.65
2022-09-23T07:23:45.124Z,18.57
2022-09-23T07:26:13.243Z,18.49
2022-09-23T07:28:40.779Z,18.32
2022-09-23T07:31:10.976Z,18.12
2022-09-23T07:33:40.891Z,18.02
2022-09-23T07:36:11.667Z,18.02
2022-09-23T07:38:42.944Z,18.34
2022-09-23T07:41:15.152Z,18.91
2022-09-23T07:43:42.213Z,19.11
2022-09-23T07:46:13.311Z,19.03
2022-09-23T07:48:40.715Z,18.95
2022-09-23T07:51:13.703Z,18.95
2022-09-23T07:53:40.723Z,18.72
2022-09-23T07:56:08.202Z,18.46
2022-09-23T07:58:35.663Z,18.25
2022-09-23T08:01:09.044Z,18.03
2022-09-23T08:03:37.226Z,17.88
2022-09-23T08:06:10.213Z,18.25
2022-09-23T08:08:40.566Z,18.74
2022-09-23T08:11:10.370Z,18.97
2022-09-23T08:13:37.810Z,19.06
2022-09-23T08:16:05.196Z,19.07
2022-09-23T08:18:33.034Z,19.01
2022-09-23T08:21:00.082Z,18.97
2022-09-23T08:23:27.946Z,18.89
2022-09-23T08:26:00.920Z,18.80
2022-09-23T08:28:29.003Z,18.61
2022-09-23T08:30:56.359Z,18.69
2022-09-23T08:33:24.635Z,19.03
2022-09-23T08:35:53.198Z,19.20
2022-09-23T08:38:20.717Z,19.16
2022-09-23T08:40:49.936Z,19.01
2022-09-23T08:43:30.029Z,18.90
2022-09-23T08:46:03.307Z,18.86
2022-09-23T08:48:44.096Z,18.87
2022-09-23T08:51:17.677Z,18.98
2022-09-23T08:53:47.095Z,19.10
2022-09-23T08:56:20.100Z,19.10
2022-09-23T08:59:22.457Z,19.55
2022-09-23T09:01:56.436Z,20.29
2022-09-23T09:04:28.840Z,20.56
2022-09-23T09:07:37.150Z,20.72
2022-09-23T09:10:14.854Z,20.76
2022-09-23T09:13:03.406Z,20.62
2022-09-23T09:15:31.056Z,20.36
2022-09-23T09:18:04.191Z,20.06
2022-09-23T09:20:38.250Z,19.92
2022-09-23T09:23:22.802Z,19.75
2022-09-23T09:25:56.532Z,19.66
2022-09-23T09:28:26.855Z,19.46
2022-09-23T09:31:01.723Z,19.41
2022-09-23T09:33:40.654Z,19.42
2022-09-23T09:36:22.150Z,19.43
2022-09-23T09:38:51.358Z,19.34
2022-09-23T09:41:21.568Z,19.27
2022-09-23T09:43:50.767Z,19.18
2022-09-23T09:46:51.350Z,19.33
2022-09-23T09:49:30.738Z,19.76
2022-09-23T09:52:22.848Z,19.90
2022-09-23T09:54:51.280Z,19.94
2022-09-23T09:57:33.544Z,19.95
2022-09-23T10:00:35.737Z,19.88
2022-09-23T10:03:15.072Z,19.74
2022-09-23T10:05:45.248Z,19.70
2022-09-23T10:08:29.478Z,19.81
2022-09-23T10:10:59.812Z,19.85
2022-09-23T10:13:30.258Z,19.92
2022-09-23T10:16:04.043Z,20.05
2022-09-23T10:18:48.694Z,20.12
2022-09-23T10:21:25.437Z,20.21
2022-09-23T10:24:01.695Z,20.23
2022-09-23T10:26:32.578Z,20.19
2022-09-23T10:29:19.616Z,20.16
2022-09-23T10:31:46.855Z,20.18
2022-09-23T10:34:44.082Z,20.25
2022-09-23T10:37:18.824Z,20.35
2022-09-23T10:40:04.688Z,20.46
2022-09-23T10:43:19.601Z,20.65
2022-09-23T10:46:25.396Z,20.94
2022-09-23T10:49:14.083Z,21.24
2022-09-23T10:52:03.025Z,21.55
2022-09-23T10:54:42.183Z,21.57
2022-09-23T10:57:40.778Z,21.27
2022-09-23T11:00:14.542Z,20.44
2022-09-23T11:03:16.167Z,19.84
2022-09-23T11:06:19.006Z,19.25
2022-09-23T11:09:07.615Z,18.76
2022-09-23T11:12:10.775Z,18.34
2022-09-23T11:15:07.381Z,18.06
2022-09-23T11:18:03.269Z,17.81
2022-09-23T11:20:54.645Z,17.64
2022-09-23T11:23:49.618Z,17.52
2022-09-23T11:26:53.291Z,17.43
2022-09-23T11:29:47.715Z,17.28
2022-09-23T11:32:44.767Z,17.37
2022-09-23T11:35:16.425Z,17.43
2022-09-23T11:37:51.457Z,17.59
2022-09-23T11:40:24.674Z,17.64
2022-09-23T11:42:58.465Z,17.59
2022-09-23T11:45:31.150Z,17.95
2022-09-23T11:48:09.564Z,18.54
2022-09-23T11:51:10.495Z,18.94
2022-09-23T11:53:52.051Z,19.18
2022-09-23T11:56:33.784Z,19.24
2022-09-23T11:59:24.702Z,19.23
2022-09-23T12:02:19.743Z,19.24
2022-09-23T12:05:06.861Z,19.21
2022-09-23T12:07:45.354Z,19.20
2022-09-23T12:10:13.159Z,19.23
2022-09-23T12:13:05.061Z,19.30
2022-09-23T12:15:41.385Z,19.31
2022-09-23T12:18:27.200Z,19.33
2022-09-23T12:20:54.221Z,19.24
2022-09-23T12:23:28.536Z,19.19
2022-09-23T12:26:01.881Z,19.16
2022-09-23T12:28:37.891Z,19.11
2022-09-23T12:31:10.271Z,19.03
2022-09-23T12:33:38.833Z,18.89
2022-09-23T12:36:08.836Z,18.78
2022-09-23T12:38:47.560Z,18.77
2022-09-23T12:41:29.735Z,18.78
2022-09-23T12:44:15.646Z,18.81
2022-09-23T12:46:44.958Z,18.90
2022-09-23T12:49:44.636Z,18.86
2022-09-23T12:52:17.724Z,18.99
2022-09-23T12:54:56.171Z,19.11
2022-09-23T12:57:35.487Z,19.16
2022-09-23T13:00:13.623Z,19.35
2022-09-23T13:02:41.716Z,19.40
2022-09-23T13:05:27.464Z,19.38
2022-09-23T13:08:24.000Z,19.34
2022-09-23T13:10:50.947Z,19.16
2022-09-23T13:13:41.030Z,19.03
2022-09-23T13:16:25.692Z,18.94
2022-09-23T13:18:55.917Z,18.76
2022-09-23T13:22:00.292Z,18.58
2022-09-23T13:24:31.316Z,18.52
2022-09-23T13:27:50.250Z,18.47
2022-09-23T13:30:25.799Z,18.30
2022-09-23T13:33:28.773Z,18.16
2022-09-23T13:36:02.377Z,17.98
2022-09-23T13:38:32.405Z,17.79
2022-09-23T13:41:14.921Z,17.66
2022-09-23T13:43:58.665Z,17.47
2022-09-23T13:46:30.358Z,17.79
2022-09-23T13:48:57.397Z,18.24
2022-09-23T13:51:31.863Z,18.49
2022-09-23T13:54:01.077Z,18.57
2022-09-23T13:56:33.041Z,18.48
2022-09-23T13:59:27.285Z,18.44
2022-09-23T14:02:17.016Z,18.29
2022-09-23T14:04:44.740Z,18.11
2022-09-23T14:07:18.996Z,17.89
2022-09-23T14:09:52.388Z,17.70
2022-09-23T14:12:22.407Z,17.56
2022-09-23T14:14:53.178Z,17.45
2022-09-23T14:17:25.468Z,17.34
2022-09-23T14:19:52.557Z,17.29
2022-09-23T14:22:27.930Z,17.19
2022-09-23T14:24:56.790Z,17.08
2022-09-23T14:27:27.657Z,17.41
2022-09-23T14:29:55.723Z,17.82
2022-09-23T14:32:27.616Z,18.01
2022-09-23T14:34:57.564Z,17.94
2022-09-23T14:37:55.517Z,17.80
2022-09-23T14:40:35.197Z,17.59
2022-09-23T14:43:23.360Z,17.44
2022-09-23T14:46:01.376Z,17.30
2022-09-23T14:48:35.275Z,17.10
2022-09-23T14:51:11.976Z,16.95
2022-09-23T14:53:46.425Z,16.84
2022-09-23T14:56:17.356Z,16.67
2022-09-23T14:58:51.992Z,16.86
2022-09-23T15:01:32.454Z,17.25
2022-09-23T15:04:08.358Z,17.39
2022-09-23T15:06:38.496Z,17.36
2022-09-23T15:09:09.894Z,17.24
2022-09-23T15:11:37.077Z,17.11
2022-09-23T15:14:33.179Z,16.89
2022-09-23T15:16:53.736Z,16.67
2022-09-23T15:19:23.099Z,16.48
2022-09-23T15:21:53.694Z,16.21
2022-09-23T15:24:43.414Z,16.27
2022-09-23T15:27:34.165Z,16.54
2022-09-23T15:30:17.930Z,16.56
2022-09-23T15:32:46.353Z,16.39
2022-09-23T15:35:19.246Z,16.20
2022-09-23T15:37:49.348Z,15.96
2022-09-23T15:40:25.954Z,15.75
2022-09-23T15:42:57.003Z,15.61
2022-09-23T15:45:40.328Z,15.36
2022-09-23T15:48:12.863Z,15.52
2022-09-23T15:50:45.624Z,15.81
2022-09-23T15:53:18.912Z,15.93
2022-09-23T15:55:46.049Z,15.80
2022-09-23T15:58:13.106Z,15.61
2022-09-23T16:00:40.485Z,15.44
2022-09-23T16:03:07.662Z,15.24
2022-09-23T16:05:37.942Z,15.00
2022-09-23T16:08:09.027Z,15.09
2022-09-23T16:10:37.721Z,15.38
2022-09-23T16:13:09.199Z,15.51
2022-09-23T16:15:36.447Z,15.44
2022-09-23T16:18:03.647Z,15.29
2022-09-23T16:20:30.899Z,15.13
2022-09-23T16:23:03.567Z,14.96
2022-09-23T16:25:36.788Z,14.68
2022-09-23T16:28:04.992Z,14.82
2022-09-23T16:30:34.109Z,15.16
2022-09-23T16:33:02.201Z,15.28
2022-09-23T16:35:33.687Z,15.27
2022-09-23T16:38:00.782Z,15.10
2022-09-23T16:40:27.940Z,14.92
2022-09-23T16:42:56.035Z,14.73
2022-09-23T16:45:23.472Z,14.47
2022-09-23T16:47:52.184Z,14.58
2022-09-23T16:50:22.891Z,14.96
2022-09-23T16:52:56.375Z,15.07
2022-09-23T16:55:25.924Z,14.98
2022-09-23T16:57:54.355Z,14.82
2022-09-23T17:00:41.166Z,14.66
2022-09-23T17:03:30.942Z,14.46
2022-09-23T17:05:58.287Z,14.29
2022-09-23T17:08:25.306Z,14.61
2022-09-23T17:10:58.475Z,15.02
2022-09-23T17:13:27.227Z,15.21
2022-09-23T17:15:54.870Z,15.19
2022-09-23T17:18:22.328Z,15.03
2022-09-23T17:21:01.277Z,14.88
2022-09-23T17:23:29.807Z,14.64
2022-09-23T17:25:57.045Z,14.39
2022-09-23T17:28:25.029Z,14.49
2022-09-23T17:30:59.304Z,14.78
2022-09-23T17:33:31.637Z,14.92
2022-09-23T17:36:02.622Z,14.84
2022-09-23T17:38:29.841Z,14.73
2022-09-23T17:40:59.223Z,14.55
2022-09-23T17:43:26.242Z,14.42
2022-09-23T17:46:01.267Z,14.19
2022-09-23T17:48:29.123Z,14.27
2022-09-23T17:51:04.600Z,14.61
2022-09-23T17:53:37.165Z,14.77
2022-09-23T17:56:19.440Z,14.73
2022-09-23T17:58:48.464Z,14.58
2022-09-23T18:01:18.696Z,14.43
2022-09-23T18:03:46.533Z,14.25
2022-09-23T18:06:15.001Z,14.02
2022-09-23T18:08:44.372Z,14.18
2022-09-23T18:11:20.706Z,14.54
2022-09-23T18:13:56.517Z,14.67
2022-09-23T18:16:26.147Z,14.68
2022-09-23T18:18:59.501Z,14.54
2022-09-23T18:21:30.504Z,14.28
2022-09-23T18:24:15.653Z,14.05
2022-09-23T18:26:45.789Z,13.82
2022-09-23T18:29:14.328Z,13.99
2022-09-23T18:31:44.271Z,14.44
2022-09-23T18:34:14.076Z,14.67
2022-09-23T18:36:41.388Z,14.65
2022-09-23T18:39:08.714Z,14.54
2022-09-23T19:37:22.632Z,10.02
2022-09-23T19:39:49.596Z,11.87
2022-09-23T19:42:16.642Z,12.84
2022-09-23T19:44:43.533Z,13.43
2022-09-23T19:47:14.886Z,13.75
2022-09-23T19:49:41.755Z,13.82
2022-09-23T19:52:08.619Z,13.79
2022-09-23T19:54:36.674Z,13.69
2022-09-23T19:57:03.612Z,13.89
2022-09-23T19:59:30.952Z,14.28
2022-09-23T20:01:57.894Z,14.54
2022-09-23T20:04:25.696Z,14.61
2022-09-23T20:06:52.625Z,14.54
2022-09-23T20:09:20.106Z,14.53
2022-09-23T20:11:46.892Z,14.44
2022-09-23T20:14:14.621Z,14.22
2022-09-23T20:16:41.612Z,14.36
2022-09-23T20:19:09.247Z,14.71
2022-09-23T20:21:36.413Z,14.93
2022-09-23T20:24:05.884Z,15.01
2022-09-23T20:26:51.534Z,14.95
2022-09-23T20:29:18.633Z,14.83
2022-09-23T20:31:45.709Z,14.73
2022-09-23T20:34:16.189Z,14.57
2022-09-23T20:36:44.330Z,14.70
2022-09-23T20:39:12.602Z,15.05
2022-09-23T20:41:41.289Z,15.34
2022-09-23T20:44:13.473Z,15.39
2022-09-23T20:46:46.974Z,15.29
2022-09-23T20:49:16.869Z,15.12
2022-09-23T20:51:43.802Z,14.99
2022-09-23T20:54:11.667Z,14.77
2022-09-23T20:56:38.706Z,14.89
2022-09-23T20:59:05.900Z,15.28
2022-09-23T21:01:34.636Z,15.42
2022-09-23T21:04:04.455Z,15.42
2022-09-23T21:06:33.679Z,15.41
2022-09-23T21:09:01.243Z,15.41
2022-09-23T21:11:28.709Z,15.21
2022-09-23T21:13:56.047Z,14.95
2022-09-23T21:16:23.936Z,15.09
2022-09-23T21:18:52.025Z,15.51
2022-09-23T21:21:21.480Z,15.57
2022-09-23T21:23:50.005Z,15.63
2022-09-23T21:26:22.799Z,15.46
2022-09-23T21:28:59.358Z,15.09
2022-09-23T21:31:32.992Z,14.92
2022-09-23T21:33:59.784Z,14.68
2022-09-23T21:36:28.579Z,14.92
2022-09-23T21:38:57.405Z,15.35
2022-09-23T21:41:25.009Z,15.54
2022-09-23T21:43:51.973Z,15.55
2022-09-23T21:46:20.266Z,15.47
2022-09-23T21:48:52.293Z,15.30
2022-09-23T21:51:20.882Z,15.09
2022-09-23T21:53:48.605Z,14.95
2022-09-23T21:56:21.778Z,14.72
2022-09-23T21:58:49.698Z,14.83
2022-09-23T22:01:22.566Z,15.22
2022-09-23T22:04:07.348Z,15.41
2022-09-23T22:06:37.582Z,15.39
2022-09-23T22:09:08.353Z,15.23
2022-09-23T22:11:56.307Z,15.05
2022-09-23T22:14:25.559Z,14.90
2022-09-23T22:16:56.680Z,14.67
2022-09-23T22:19:32.235Z,14.85
2022-09-23T22:21:59.593Z,15.32
2022-09-23T22:24:27.424Z,15.43
2022-09-23T22:26:54.310Z,15.48
2022-09-23T22:29:39.805Z,15.34
2022-09-23T22:32:29.248Z,15.22
2022-09-23T22:34:57.031Z,15.08
2022-09-23T22:37:29.789Z,14.87
2022-09-23T22:39:56.794Z,15.07
2022-09-23T22:42:23.847Z,15.44
2022-09-23T22:44:52.267Z,15.66
2022-09-23T22:47:19.468Z,15.65
2022-09-23T22:49:47.142Z,15.54
2022-09-23T22:52:20.318Z,15.39
2022-09-23T22:54:47.241Z,15.21
2022-09-23T22:57:14.695Z,14.99
2022-09-23T22:59:47.248Z,15.17
2022-09-23T23:02:17.277Z,15.54
2022-09-23T23:04:46.585Z,15.71
2022-09-23T23:07:15.632Z,15.66
2022-09-23T23:09:42.634Z,15.49
2022-09-23T23:12:09.431Z,15.30
2022-09-23T23:14:37.523Z,15.20
2022-09-23T23:17:07.012Z,15.03
2022-09-23T23:19:35.713Z,15.20
2022-09-23T23:22:03.990Z,15.59
2022-09-23T23:24:31.822Z,15.84
2022-09-23T23:26:58.796Z,15.79
2022-09-23T23:29:25.729Z,15.65
2022-09-23T23:31:52.650Z,15.46
2022-09-23T23:34:21.005Z,15.28
2022-09-23T23:36:53.844Z,15.00
2022-09-23T23:39:23.056Z,15.25
2022-09-23T23:41:53.702Z,15.65
2022-09-23T23:44:24.015Z,15.88
2022-09-23T23:46:51.860Z,15.81
2022-09-23T23:49:19.316Z,15.64
2022-09-23T23:51:47.284Z,15.45
2022-09-23T23:54:14.708Z,15.22
2022-09-23T23:56:41.499Z,14.93
2022-09-23T23:59:08.322Z,15.11
